sensor_id;sensor_type;location;lat;lon;timestamp;temperature;humidity
13211;DHT22;6670;51.53087800;7.23266500;2023-06-22T00:02:24;23.80;99.90
13211;DHT22;6670;51.53087800;7.23266500;2023-06-22T00:04:51;23.70;99.90
13211;DHT22;6670;51.53087800;7.23266500;2023-06-22T00:07:19;23.90;99.90
13211;DHT22;6670;51.53087800;7.23266500;2023-06-22T00:09:46;23.90;99.90
13211;DHT22;6670;51.53087800;7.23266500;2023-06-22T00:12:13;23.70;99.90
13211;DHT22;6670;51.53087800;7.23266500;2023-06-22T00:14:41;23.90;99.90
13211;DHT22;6670;51.53087800;7.23266500;2023-06-22T00:17:08;23.50;99.90
13211;DHT22;6670;51.53087800;7.23266500;2023-06-22T00:19:37;23.60;99.90
13211;DHT22;6670;51.53087800;7.23266500;2023-06-22T00:22:06;23.80;99.90
13211;DHT22;6670;51.53087800;7.23266500;2023-06-22T00:24:34;23.80;99.90
13211;DHT22;6670;51.53087800;7.23266500;2023-06-22T00:27:01;23.80;99.90
13211;DHT22;6670;51.53087800;7.23266500;2023-06-22T00:29:29;23.70;99.90
13211;DHT22;6670;51.53087800;7.23266500;2023-06-22T00:31:56;23.80;99.90
13211;DHT22;6670;51.53087800;7.23266500;2023-06-22T00:34:24;23.70;99.90
13211;DHT22;6670;51.53087800;7.23266500;2023-06-22T00:36:54;23.60;99.90
13211;DHT22;6670;51.53087800;7.23266500;2023-06-22T00:39:23;23.70;99.90
13211;DHT22;6670;51.53087800;7.23266500;2023-06-22T00:41:51;23.50;99.90
13211;DHT22;6670;51.53087800;7.23266500;2023-06-22T00:44:18;23.30;99.90
13211;DHT22;6670;51.53087800;7.23266500;2023-06-22T00:46:45;23.10;99.90
13211;DHT22;6670;51.53087800;7.23266500;2023-06-22T00:49:13;22.90;99.90
13211;DHT22;6670;51.53087800;7.23266500;2023-06-22T00:51:41;23.10;99.90
13211;DHT22;6670;51.53087800;7.23266500;2023-06-22T00:54:13;23.40;99.90
13211;DHT22;6670;51.53087800;7.23266500;2023-06-22T00:56:41;23.40;99.90
13211;DHT22;6670;51.53087800;7.23266500;2023-06-22T00:59:09;23.10;99.90
13211;DHT22;6670;51.53087800;7.23266500;2023-06-22T01:01:38;23.00;99.90
13211;DHT22;6670;51.53087800;7.23266500;2023-06-22T01:04:07;23.00;99.90
13211;DHT22;6670;51.53087800;7.23266500;2023-06-22T01:06:43;23.20;99.90
13211;DHT22;6670;51.53087800;7.23266500;2023-06-22T01:09:15;23.50;99.90
13211;DHT22;6670;51.53087800;7.23266500;2023-06-22T01:11:47;23.40;99.90
13211;DHT22;6670;51.53087800;7.23266500;2023-06-22T01:14:23;23.30;99.90
13211;DHT22;6670;51.53087800;7.23266500;2023-06-22T01:16:51;23.30;99.90
13211;DHT22;6670;51.53087800;7.23266500;2023-06-22T01:19:34;23.30;99.90
13211;DHT22;6670;51.53087800;7.23266500;2023-06-22T01:22:03;23.30;99.90
13211;DHT22;6670;51.53087800;7.23266500;2023-06-22T01:24:44;23.20;99.90
13211;DHT22;6670;51.53087800;7.23266500;2023-06-22T01:27:20;23.30;99.90
13211;DHT22;6670;51.53087800;7.23266500;2023-06-22T01:29:55;23.00;99.90
13211;DHT22;6670;51.53087800;7.23266500;2023-06-22T01:32:28;22.90;99.90
13211;DHT22;6670;51.53087800;7.23266500;2023-06-22T01:34:58;22.90;99.90
13211;DHT22;6670;51.53087800;7.23266500;2023-06-22T01:37:27;22.80;99.90
13211;DHT22;6670;51.53087800;7.23266500;2023-06-22T01:40:17;22.70;99.90
13211;DHT22;6670;51.53087800;7.23266500;2023-06-22T01:42:45;22.60;99.90
13211;DHT22;6670;51.53087800;7.23266500;2023-06-22T01:45:15;22.60;99.90
13211;DHT22;6670;51.53087800;7.23266500;2023-06-22T01:47:43;22.60;99.90
13211;DHT22;6670;51.53087800;7.23266500;2023-06-22T01:50:10;22.70;99.90
13211;DHT22;6670;51.53087800;7.23266500;2023-06-22T01:52:38;22.80;99.90
13211;DHT22;6670;51.53087800;7.23266500;2023-06-22T01:55:06;22.90;99.90
13211;DHT22;6670;51.53087800;7.23266500;2023-06-22T01:57:34;22.80;99.90
13211;DHT22;6670;51.53087800;7.23266500;2023-06-22T02:00:04;22.80;99.90
13211;DHT22;6670;51.53087800;7.23266500;2023-06-22T02:02:45;22.70;99.90
13211;DHT22;6670;51.53087800;7.23266500;2023-06-22T02:05:17;23.00;99.90
13211;DHT22;6670;51.53087800;7.23266500;2023-06-22T02:07:59;22.70;99.90
13211;DHT22;6670;51.53087800;7.23266500;2023-06-22T02:10:31;22.80;99.90
13211;DHT22;6670;51.53087800;7.23266500;2023-06-22T02:13:00;22.80;99.90
13211;DHT22;6670;51.53087800;7.23266500;2023-06-22T02:15:29;22.60;99.90
13211;DHT22;6670;51.53087800;7.23266500;2023-06-22T02:17:59;22.30;99.90
13211;DHT22;6670;51.53087800;7.23266500;2023-06-22T02:20:26;22.40;99.90
13211;DHT22;6670;51.53087800;7.23266500;2023-06-22T02:22:56;22.30;99.90
13211;DHT22;6670;51.53087800;7.23266500;2023-06-22T02:25:24;22.40;99.90
13211;DHT22;6670;51.53087800;7.23266500;2023-06-22T02:27:52;22.70;99.90
13211;DHT22;6670;51.53087800;7.23266500;2023-06-22T02:30:19;22.80;99.90
13211;DHT22;6670;51.53087800;7.23266500;2023-06-22T02:32:46;22.80;99.90
13211;DHT22;6670;51.53087800;7.23266500;2023-06-22T02:35:24;23.00;99.90
13211;DHT22;6670;51.53087800;7.23266500;2023-06-22T02:37:52;22.80;99.90
13211;DHT22;6670;51.53087800;7.23266500;2023-06-22T02:40:20;22.60;99.90
13211;DHT22;6670;51.53087800;7.23266500;2023-06-22T02:42:48;22.30;99.90
13211;DHT22;6670;51.53087800;7.23266500;2023-06-22T02:45:15;22.10;99.90
13211;DHT22;6670;51.53087800;7.23266500;2023-06-22T02:47:43;22.30;99.90
13211;DHT22;6670;51.53087800;7.23266500;2023-06-22T02:50:11;22.80;99.90
13211;DHT22;6670;51.53087800;7.23266500;2023-06-22T02:52:40;23.20;99.90
13211;DHT22;6670;51.53087800;7.23266500;2023-06-22T02:55:08;23.40;99.90
13211;DHT22;6670;51.53087800;7.23266500;2023-06-22T02:57:35;23.50;99.90
13211;DHT22;6670;51.53087800;7.23266500;2023-06-22T03:00:04;23.50;99.90
13211;DHT22;6670;51.53087800;7.23266500;2023-06-22T03:02:43;23.50;99.90
13211;DHT22;6670;51.53087800;7.23266500;2023-06-22T03:05:11;23.50;99.90
13211;DHT22;6670;51.53087800;7.23266500;2023-06-22T03:07:42;23.50;99.90
13211;DHT22;6670;51.53087800;7.23266500;2023-06-22T03:10:11;23.40;99.90
13211;DHT22;6670;51.53087800;7.23266500;2023-06-22T03:12:39;23.10;99.90
13211;DHT22;6670;51.53087800;7.23266500;2023-06-22T03:15:08;23.20;99.90
13211;DHT22;6670;51.53087800;7.23266500;2023-06-22T03:17:36;23.20;99.90
13211;DHT22;6670;51.53087800;7.23266500;2023-06-22T03:20:05;23.30;99.90
13211;DHT22;6670;51.53087800;7.23266500;2023-06-22T03:22:35;23.30;99.90
13211;DHT22;6670;51.53087800;7.23266500;2023-06-22T03:25:05;23.30;99.90
13211;DHT22;6670;51.53087800;7.23266500;2023-06-22T03:27:37;23.40;99.90
13211;DHT22;6670;51.53087800;7.23266500;2023-06-22T03:30:09;23.40;99.90
13211;DHT22;6670;51.53087800;7.23266500;2023-06-22T03:32:36;23.40;99.90
13211;DHT22;6670;51.53087800;7.23266500;2023-06-22T03:35:06;23.20;99.90
13211;DHT22;6670;51.53087800;7.23266500;2023-06-22T03:37:36;23.00;99.90
13211;DHT22;6670;51.53087800;7.23266500;2023-06-22T03:40:06;22.90;99.90
13211;DHT22;6670;51.53087800;7.23266500;2023-06-22T03:42:35;23.10;99.90
13211;DHT22;6670;51.53087800;7.23266500;2023-06-22T03:45:03;23.20;99.90
13211;DHT22;6670;51.53087800;7.23266500;2023-06-22T03:47:32;23.30;99.90
13211;DHT22;6670;51.53087800;7.23266500;2023-06-22T03:50:02;23.30;99.90
13211;DHT22;6670;51.53087800;7.23266500;2023-06-22T03:52:30;23.30;99.90
13211;DHT22;6670;51.53087800;7.23266500;2023-06-22T03:54:58;23.20;99.90
13211;DHT22;6670;51.53087800;7.23266500;2023-06-22T03:57:27;23.20;99.90
13211;DHT22;6670;51.53087800;7.23266500;2023-06-22T03:59:57;23.20;99.90
13211;DHT22;6670;51.53087800;7.23266500;2023-06-22T04:02:24;23.20;99.90
13211;DHT22;6670;51.53087800;7.23266500;2023-06-22T04:04:51;23.20;99.90
13211;DHT22;6670;51.53087800;7.23266500;2023-06-22T04:07:19;23.20;99.90
13211;DHT22;6670;51.53087800;7.23266500;2023-06-22T04:09:46;23.20;99.90
13211;DHT22;6670;51.53087800;7.23266500;2023-06-22T04:12:14;23.20;99.90
13211;DHT22;6670;51.53087800;7.23266500;2023-06-22T04:14:43;23.30;99.90
13211;DHT22;6670;51.53087800;7.23266500;2023-06-22T04:17:10;23.20;99.90
13211;DHT22;6670;51.53087800;7.23266500;2023-06-22T04:19:41;23.20;99.90
13211;DHT22;6670;51.53087800;7.23266500;2023-06-22T04:22:08;23.20;99.90
13211;DHT22;6670;51.53087800;7.23266500;2023-06-22T04:24:36;23.00;99.90
13211;DHT22;6670;51.53087800;7.23266500;2023-06-22T04:27:04;23.10;99.90
13211;DHT22;6670;51.53087800;7.23266500;2023-06-22T04:29:32;23.00;99.90
13211;DHT22;6670;51.53087800;7.23266500;2023-06-22T04:32:00;23.00;99.90
13211;DHT22;6670;51.53087800;7.23266500;2023-06-22T04:34:41;22.90;99.90
13211;DHT22;6670;51.53087800;7.23266500;2023-06-22T04:37:13;23.00;99.90
13211;DHT22;6670;51.53087800;7.23266500;2023-06-22T04:39:44;23.00;99.90
13211;DHT22;6670;51.53087800;7.23266500;2023-06-22T04:42:12;22.90;99.90
13211;DHT22;6670;51.53087800;7.23266500;2023-06-22T04:44:45;23.00;99.90
13211;DHT22;6670;51.53087800;7.23266500;2023-06-22T04:47:22;22.90;99.90
13211;DHT22;6670;51.53087800;7.23266500;2023-06-22T04:50:09;22.80;99.90
13211;DHT22;6670;51.53087800;7.23266500;2023-06-22T04:52:37;22.90;99.90
13211;DHT22;6670;51.53087800;7.23266500;2023-06-22T04:55:06;22.40;99.90
13211;DHT22;6670;51.53087800;7.23266500;2023-06-22T04:57:41;22.70;99.90
13211;DHT22;6670;51.53087800;7.23266500;2023-06-22T05:00:15;22.90;99.90
13211;DHT22;6670;51.53087800;7.23266500;2023-06-22T05:02:46;22.90;99.90
13211;DHT22;6670;51.53087800;7.23266500;2023-06-22T05:05:13;23.00;99.90
13211;DHT22;6670;51.53087800;7.23266500;2023-06-22T05:07:42;23.00;99.90
13211;DHT22;6670;51.53087800;7.23266500;2023-06-22T05:10:10;22.90;99.90
13211;DHT22;6670;51.53087800;7.23266500;2023-06-22T05:12:53;22.90;99.90
13211;DHT22;6670;51.53087800;7.23266500;2023-06-22T05:15:21;22.60;99.90
13211;DHT22;6670;51.53087800;7.23266500;2023-06-22T05:17:54;22.70;99.90
13211;DHT22;6670;51.53087800;7.23266500;2023-06-22T05:20:21;22.60;99.90
13211;DHT22;6670;51.53087800;7.23266500;2023-06-22T05:22:48;22.60;99.90
13211;DHT22;6670;51.53087800;7.23266500;2023-06-22T05:25:16;22.70;99.90
13211;DHT22;6670;51.53087800;7.23266500;2023-06-22T05:27:47;22.60;99.90
13211;DHT22;6670;51.53087800;7.23266500;2023-06-22T05:30:16;22.40;99.90
13211;DHT22;6670;51.53087800;7.23266500;2023-06-22T05:32:44;22.30;99.90
13211;DHT22;6670;51.53087800;7.23266500;2023-06-22T05:35:13;22.50;99.90
13211;DHT22;6670;51.53087800;7.23266500;2023-06-22T05:37:41;22.40;99.90
13211;DHT22;6670;51.53087800;7.23266500;2023-06-22T05:40:09;22.30;99.90
13211;DHT22;6670;51.53087800;7.23266500;2023-06-22T05:42:37;22.60;99.90
13211;DHT22;6670;51.53087800;7.23266500;2023-06-22T05:45:05;22.60;99.90
13211;DHT22;6670;51.53087800;7.23266500;2023-06-22T05:47:33;22.30;99.90
13211;DHT22;6670;51.53087800;7.23266500;2023-06-22T05:50:00;22.20;99.90
13211;DHT22;6670;51.53087800;7.23266500;2023-06-22T05:52:33;22.60;99.90
13211;DHT22;6670;51.53087800;7.23266500;2023-06-22T05:55:02;22.80;99.90
13211;DHT22;6670;51.53087800;7.23266500;2023-06-22T05:57:30;22.90;99.90
13211;DHT22;6670;51.53087800;7.23266500;2023-06-22T05:59:57;23.10;99.90
13211;DHT22;6670;51.53087800;7.23266500;2023-06-22T06:02:24;23.00;99.90
13211;DHT22;6670;51.53087800;7.23266500;2023-06-22T06:04:52;22.70;99.90
13211;DHT22;6670;51.53087800;7.23266500;2023-06-22T06:07:20;22.70;99.90
13211;DHT22;6670;51.53087800;7.23266500;2023-06-22T06:09:49;22.50;99.90
13211;DHT22;6670;51.53087800;7.23266500;2023-06-22T06:12:17;22.80;99.90
13211;DHT22;6670;51.53087800;7.23266500;2023-06-22T06:14:44;22.60;99.90
13211;DHT22;6670;51.53087800;7.23266500;2023-06-22T06:17:13;22.30;99.90
13211;DHT22;6670;51.53087800;7.23266500;2023-06-22T06:19:52;22.30;99.90
13211;DHT22;6670;51.53087800;7.23266500;2023-06-22T06:22:19;22.70;99.90
13211;DHT22;6670;51.53087800;7.23266500;2023-06-22T06:28:16;23.10;99.90
13211;DHT22;6670;51.53087800;7.23266500;2023-06-22T06:30:56;23.20;99.90
13211;DHT22;6670;51.53087800;7.23266500;2023-06-22T06:33:23;23.30;99.90
13211;DHT22;6670;51.53087800;7.23266500;2023-06-22T06:35:58;23.30;99.90
13211;DHT22;6670;51.53087800;7.23266500;2023-06-22T06:38:28;23.40;99.90
13211;DHT22;6670;51.53087800;7.23266500;2023-06-22T06:40:55;23.40;99.90
13211;DHT22;6670;51.53087800;7.23266500;2023-06-22T06:43:31;23.30;99.90
13211;DHT22;6670;51.53087800;7.23266500;2023-06-22T06:46:05;23.20;99.90
13211;DHT22;6670;51.53087800;7.23266500;2023-06-22T06:48:54;23.30;99.90
13211;DHT22;6670;51.53087800;7.23266500;2023-06-22T06:51:21;23.40;99.90
13211;DHT22;6670;51.53087800;7.23266500;2023-06-22T06:54:13;23.50;99.90
13211;DHT22;6670;51.53087800;7.23266500;2023-06-22T06:56:40;23.50;99.90
13211;DHT22;6670;51.53087800;7.23266500;2023-06-22T06:59:23;23.50;99.90
13211;DHT22;6670;51.53087800;7.23266500;2023-06-22T07:01:51;23.50;99.90
13211;DHT22;6670;51.53087800;7.23266500;2023-06-22T07:04:18;23.20;99.90
13211;DHT22;6670;51.53087800;7.23266500;2023-06-22T07:06:45;23.30;99.90
13211;DHT22;6670;51.53087800;7.23266500;2023-06-22T07:09:13;23.40;99.90
13211;DHT22;6670;51.53087800;7.23266500;2023-06-22T07:11:40;23.50;99.90
13211;DHT22;6670;51.53087800;7.23266500;2023-06-22T07:14:08;23.50;99.90
13211;DHT22;6670;51.53087800;7.23266500;2023-06-22T07:16:36;23.60;99.90
13211;DHT22;6670;51.53087800;7.23266500;2023-06-22T07:23:07;23.70;99.90
13211;DHT22;6670;51.53087800;7.23266500;2023-06-22T07:28:51;23.60;99.90
13211;DHT22;6670;51.53087800;7.23266500;2023-06-22T07:31:18;23.30;99.90
13211;DHT22;6670;51.53087800;7.23266500;2023-06-22T07:33:47;23.20;99.90
13211;DHT22;6670;51.53087800;7.23266500;2023-06-22T07:36:14;22.90;99.90
13211;DHT22;6670;51.53087800;7.23266500;2023-06-22T07:38:42;22.90;99.90
13211;DHT22;6670;51.53087800;7.23266500;2023-06-22T07:41:09;22.90;99.90
13211;DHT22;6670;51.53087800;7.23266500;2023-06-22T07:43:37;22.70;99.90
13211;DHT22;6670;51.53087800;7.23266500;2023-06-22T07:46:04;22.90;99.90
13211;DHT22;6670;51.53087800;7.23266500;2023-06-22T07:48:32;23.00;99.90
13211;DHT22;6670;51.53087800;7.23266500;2023-06-22T07:51:00;22.90;99.90
13211;DHT22;6670;51.53087800;7.23266500;2023-06-22T07:53:28;22.90;99.90
13211;DHT22;6670;51.53087800;7.23266500;2023-06-22T07:55:55;23.00;99.90
13211;DHT22;6670;51.53087800;7.23266500;2023-06-22T07:58:22;23.10;99.90
13211;DHT22;6670;51.53087800;7.23266500;2023-06-22T08:00:50;23.30;99.90
13211;DHT22;6670;51.53087800;7.23266500;2023-06-22T08:03:17;23.50;99.90
13211;DHT22;6670;51.53087800;7.23266500;2023-06-22T08:05:45;23.50;99.90
13211;DHT22;6670;51.53087800;7.23266500;2023-06-22T08:08:14;23.40;99.90
13211;DHT22;6670;51.53087800;7.23266500;2023-06-22T08:10:41;23.50;99.90
13211;DHT22;6670;51.53087800;7.23266500;2023-06-22T08:13:09;23.60;99.90
13211;DHT22;6670;51.53087800;7.23266500;2023-06-22T08:15:36;23.70;99.90
13211;DHT22;6670;51.53087800;7.23266500;2023-06-22T08:18:04;23.80;99.90
13211;DHT22;6670;51.53087800;7.23266500;2023-06-22T08:20:32;23.80;99.90
13211;DHT22;6670;51.53087800;7.23266500;2023-06-22T08:22:59;23.60;99.90
13211;DHT22;6670;51.53087800;7.23266500;2023-06-22T08:25:33;23.60;99.90
13211;DHT22;6670;51.53087800;7.23266500;2023-06-22T08:28:00;23.70;99.90
13211;DHT22;6670;51.53087800;7.23266500;2023-06-22T08:30:28;23.80;99.90
13211;DHT22;6670;51.53087800;7.23266500;2023-06-22T08:32:55;23.90;99.90
13211;DHT22;6670;51.53087800;7.23266500;2023-06-22T08:35:25;23.90;99.90
13211;DHT22;6670;51.53087800;7.23266500;2023-06-22T08:37:52;23.90;99.90
13211;DHT22;6670;51.53087800;7.23266500;2023-06-22T08:40:21;23.90;99.90
13211;DHT22;6670;51.53087800;7.23266500;2023-06-22T08:42:50;23.90;99.90
13211;DHT22;6670;51.53087800;7.23266500;2023-06-22T08:45:17;24.00;99.90
13211;DHT22;6670;51.53087800;7.23266500;2023-06-22T08:47:45;23.90;99.90
13211;DHT22;6670;51.53087800;7.23266500;2023-06-22T08:50:12;23.90;99.90
13211;DHT22;6670;51.53087800;7.23266500;2023-06-22T08:52:40;23.90;99.90
13211;DHT22;6670;51.53087800;7.23266500;2023-06-22T08:55:09;24.10;99.90
13211;DHT22;6670;51.53087800;7.23266500;2023-06-22T08:57:37;24.10;99.90
13211;DHT22;6670;51.53087800;7.23266500;2023-06-22T09:00:08;24.10;99.90
13211;DHT22;6670;51.53087800;7.23266500;2023-06-22T09:02:43;24.20;99.90
13211;DHT22;6670;51.53087800;7.23266500;2023-06-22T09:05:11;24.10;99.90
13211;DHT22;6670;51.53087800;7.23266500;2023-06-22T09:07:38;24.20;99.90
13211;DHT22;6670;51.53087800;7.23266500;2023-06-22T09:10:06;24.10;99.90
13211;DHT22;6670;51.53087800;7.23266500;2023-06-22T09:12:34;24.00;99.90
13211;DHT22;6670;51.53087800;7.23266500;2023-06-22T09:15:04;24.10;99.90
13211;DHT22;6670;51.53087800;7.23266500;2023-06-22T09:17:35;24.20;99.90
13211;DHT22;6670;51.53087800;7.23266500;2023-06-22T09:20:03;24.20;99.90
13211;DHT22;6670;51.53087800;7.23266500;2023-06-22T09:22:32;24.10;99.90
13211;DHT22;6670;51.53087800;7.23266500;2023-06-22T09:24:59;24.10;99.90
13211;DHT22;6670;51.53087800;7.23266500;2023-06-22T09:27:27;24.30;99.90
13211;DHT22;6670;51.53087800;7.23266500;2023-06-22T09:29:54;24.40;99.90
13211;DHT22;6670;51.53087800;7.23266500;2023-06-22T09:32:24;24.20;99.90
13211;DHT22;6670;51.53087800;7.23266500;2023-06-22T09:34:53;24.20;99.90
13211;DHT22;6670;51.53087800;7.23266500;2023-06-22T09:37:20;24.10;99.90
13211;DHT22;6670;51.53087800;7.23266500;2023-06-22T09:39:48;24.30;99.90
13211;DHT22;6670;51.53087800;7.23266500;2023-06-22T09:42:15;24.30;99.90
13211;DHT22;6670;51.53087800;7.23266500;2023-06-22T09:44:43;24.40;99.90
13211;DHT22;6670;51.53087800;7.23266500;2023-06-22T09:47:10;24.60;99.90
13211;DHT22;6670;51.53087800;7.23266500;2023-06-22T09:49:37;24.80;99.90
13211;DHT22;6670;51.53087800;7.23266500;2023-06-22T09:52:07;25.00;99.90
13211;DHT22;6670;51.53087800;7.23266500;2023-06-22T09:54:34;25.10;99.90
13211;DHT22;6670;51.53087800;7.23266500;2023-06-22T09:57:02;25.20;99.90
13211;DHT22;6670;51.53087800;7.23266500;2023-06-22T09:59:29;25.10;99.90
13211;DHT22;6670;51.53087800;7.23266500;2023-06-22T10:01:57;25.20;99.90
13211;DHT22;6670;51.53087800;7.23266500;2023-06-22T10:04:24;25.30;99.90
13211;DHT22;6670;51.53087800;7.23266500;2023-06-22T10:06:51;25.20;99.90
13211;DHT22;6670;51.53087800;7.23266500;2023-06-22T10:09:20;25.40;99.90
13211;DHT22;6670;51.53087800;7.23266500;2023-06-22T10:11:48;25.50;99.90
13211;DHT22;6670;51.53087800;7.23266500;2023-06-22T10:14:15;25.60;99.90
13211;DHT22;6670;51.53087800;7.23266500;2023-06-22T10:16:43;25.70;99.90
13211;DHT22;6670;51.53087800;7.23266500;2023-06-22T10:19:10;25.70;99.90
13211;DHT22;6670;51.53087800;7.23266500;2023-06-22T10:21:37;25.70;99.90
13211;DHT22;6670;51.53087800;7.23266500;2023-06-22T10:24:05;25.80;99.90
13211;DHT22;6670;51.53087800;7.23266500;2023-06-22T10:26:34;25.70;99.90
13211;DHT22;6670;51.53087800;7.23266500;2023-06-22T10:29:03;25.80;99.90
13211;DHT22;6670;51.53087800;7.23266500;2023-06-22T10:31:30;25.80;99.90
13211;DHT22;6670;51.53087800;7.23266500;2023-06-22T10:34:26;26.00;99.90
13211;DHT22;6670;51.53087800;7.23266500;2023-06-22T10:36:54;26.00;99.90
13211;DHT22;6670;51.53087800;7.23266500;2023-06-22T10:39:21;26.00;99.90
13211;DHT22;6670;51.53087800;7.23266500;2023-06-22T10:41:50;25.90;99.90
13211;DHT22;6670;51.53087800;7.23266500;2023-06-22T10:44:17;26.10;99.90
13211;DHT22;6670;51.53087800;7.23266500;2023-06-22T10:46:46;26.30;99.90
13211;DHT22;6670;51.53087800;7.23266500;2023-06-22T10:49:14;26.30;99.90
13211;DHT22;6670;51.53087800;7.23266500;2023-06-22T10:51:41;26.40;99.90
13211;DHT22;6670;51.53087800;7.23266500;2023-06-22T10:54:08;26.40;99.90
13211;DHT22;6670;51.53087800;7.23266500;2023-06-22T10:56:36;26.30;99.90
13211;DHT22;6670;51.53087800;7.23266500;2023-06-22T10:59:05;26.30;99.90
13211;DHT22;6670;51.53087800;7.23266500;2023-06-22T11:01:32;26.30;99.90
13211;DHT22;6670;51.53087800;7.23266500;2023-06-22T11:04:00;26.30;99.90
13211;DHT22;6670;51.53087800;7.23266500;2023-06-22T11:06:27;26.30;99.90
13211;DHT22;6670;51.53087800;7.23266500;2023-06-22T11:08:54;26.10;99.90
13211;DHT22;6670;51.53087800;7.23266500;2023-06-22T11:11:22;26.00;99.90
13211;DHT22;6670;51.53087800;7.23266500;2023-06-22T11:13:49;26.00;99.90
13211;DHT22;6670;51.53087800;7.23266500;2023-06-22T11:16:18;26.00;99.90
13211;DHT22;6670;51.53087800;7.23266500;2023-06-22T11:18:59;25.90;99.90
13211;DHT22;6670;51.53087800;7.23266500;2023-06-22T11:21:26;25.80;99.90
13211;DHT22;6670;51.53087800;7.23266500;2023-06-22T11:24:10;25.80;99.90
13211;DHT22;6670;51.53087800;7.23266500;2023-06-22T11:29:43;25.70;99.90
13211;DHT22;6670;51.53087800;7.23266500;2023-06-22T11:32:12;25.70;99.90
13211;DHT22;6670;51.53087800;7.23266500;2023-06-22T11:34:40;25.60;99.90
13211;DHT22;6670;51.53087800;7.23266500;2023-06-22T11:37:07;25.50;99.90
13211;DHT22;6670;51.53087800;7.23266500;2023-06-22T11:39:35;25.40;99.90
13211;DHT22;6670;51.53087800;7.23266500;2023-06-22T11:42:02;25.30;99.90
13211;DHT22;6670;51.53087800;7.23266500;2023-06-22T11:44:30;25.30;99.90
13211;DHT22;6670;51.53087800;7.23266500;2023-06-22T11:46:57;25.20;99.90
13211;DHT22;6670;51.53087800;7.23266500;2023-06-22T11:49:28;25.10;99.90
13211;DHT22;6670;51.53087800;7.23266500;2023-06-22T11:51:55;24.90;99.90
13211;DHT22;6670;51.53087800;7.23266500;2023-06-22T11:54:23;24.90;99.90
13211;DHT22;6670;51.53087800;7.23266500;2023-06-22T11:56:50;24.90;99.90
13211;DHT22;6670;51.53087800;7.23266500;2023-06-22T11:59:17;24.90;99.90
13211;DHT22;6670;51.53087800;7.23266500;2023-06-22T12:01:45;24.60;99.90
13211;DHT22;6670;51.53087800;7.23266500;2023-06-22T12:04:13;24.60;99.90
13211;DHT22;6670;51.53087800;7.23266500;2023-06-22T12:06:42;24.40;99.90
13211;DHT22;6670;51.53087800;7.23266500;2023-06-22T12:09:10;24.50;99.90
13211;DHT22;6670;51.53087800;7.23266500;2023-06-22T12:11:39;24.30;99.90
13211;DHT22;6670;51.53087800;7.23266500;2023-06-22T12:14:07;24.20;99.90
13211;DHT22;6670;51.53087800;7.23266500;2023-06-22T12:16:34;24.20;99.90
13211;DHT22;6670;51.53087800;7.23266500;2023-06-22T12:19:01;24.30;99.90
13211;DHT22;6670;51.53087800;7.23266500;2023-06-22T12:21:29;24.40;99.90
13211;DHT22;6670;51.53087800;7.23266500;2023-06-22T12:23:57;24.30;99.90
13211;DHT22;6670;51.53087800;7.23266500;2023-06-22T12:26:25;24.30;99.90
13211;DHT22;6670;51.53087800;7.23266500;2023-06-22T12:28:52;24.00;99.90
13211;DHT22;6670;51.53087800;7.23266500;2023-06-22T12:31:20;24.00;99.90
13211;DHT22;6670;51.53087800;7.23266500;2023-06-22T12:33:47;24.10;99.90
13211;DHT22;6670;51.53087800;7.23266500;2023-06-22T12:36:15;24.10;99.90
13211;DHT22;6670;51.53087800;7.23266500;2023-06-22T12:38:43;23.90;99.90
13211;DHT22;6670;51.53087800;7.23266500;2023-06-22T12:41:12;23.90;99.90
13211;DHT22;6670;51.53087800;7.23266500;2023-06-22T12:43:40;23.90;99.90
13211;DHT22;6670;51.53087800;7.23266500;2023-06-22T12:46:07;24.00;99.90
13211;DHT22;6670;51.53087800;7.23266500;2023-06-22T12:48:35;23.80;99.90
13211;DHT22;6670;51.53087800;7.23266500;2023-06-22T12:51:07;23.70;99.90
13211;DHT22;6670;51.53087800;7.23266500;2023-06-22T12:53:35;23.70;99.90
13211;DHT22;6670;51.53087800;7.23266500;2023-06-22T12:56:03;23.60;99.90
13211;DHT22;6670;51.53087800;7.23266500;2023-06-22T12:58:31;23.50;99.90
13211;DHT22;6670;51.53087800;7.23266500;2023-06-22T13:00:59;23.50;99.90
13211;DHT22;6670;51.53087800;7.23266500;2023-06-22T13:03:26;23.10;99.90
13211;DHT22;6670;51.53087800;7.23266500;2023-06-22T13:05:54;22.90;99.90
13211;DHT22;6670;51.53087800;7.23266500;2023-06-22T13:08:21;23.10;99.90
13211;DHT22;6670;51.53087800;7.23266500;2023-06-22T13:10:49;22.90;99.90
13211;DHT22;6670;51.53087800;7.23266500;2023-06-22T13:13:16;22.90;99.90
13211;DHT22;6670;51.53087800;7.23266500;2023-06-22T13:15:45;23.00;99.90
13211;DHT22;6670;51.53087800;7.23266500;2023-06-22T13:18:12;23.10;99.90
13211;DHT22;6670;51.53087800;7.23266500;2023-06-22T13:20:40;23.30;99.90
13211;DHT22;6670;51.53087800;7.23266500;2023-06-22T13:23:07;23.50;99.90
13211;DHT22;6670;51.53087800;7.23266500;2023-06-22T13:25:35;23.30;99.90
13211;DHT22;6670;51.53087800;7.23266500;2023-06-22T13:28:02;23.10;99.90
13211;DHT22;6670;51.53087800;7.23266500;2023-06-22T13:30:30;23.20;99.90
13211;DHT22;6670;51.53087800;7.23266500;2023-06-22T13:32:59;23.40;99.90
13211;DHT22;6670;51.53087800;7.23266500;2023-06-22T13:35:27;23.40;99.90
13211;DHT22;6670;51.53087800;7.23266500;2023-06-22T13:37:54;23.50;99.90
13211;DHT22;6670;51.53087800;7.23266500;2023-06-22T13:40:21;23.60;99.90
13211;DHT22;6670;51.53087800;7.23266500;2023-06-22T13:42:49;23.50;99.90
13211;DHT22;6670;51.53087800;7.23266500;2023-06-22T13:45:16;23.40;99.90
13211;DHT22;6670;51.53087800;7.23266500;2023-06-22T13:47:46;23.30;99.90
13211;DHT22;6670;51.53087800;7.23266500;2023-06-22T13:50:15;23.50;99.90
13211;DHT22;6670;51.53087800;7.23266500;2023-06-22T13:52:42;23.40;99.90
13211;DHT22;6670;51.53087800;7.23266500;2023-06-22T13:55:12;23.50;99.90
13211;DHT22;6670;51.53087800;7.23266500;2023-06-22T13:57:41;23.30;99.90
13211;DHT22;6670;51.53087800;7.23266500;2023-06-22T14:00:09;23.50;99.90